Toledo, Iowa
Current Conditions -  °F | °C
As of 5:53 PM on Friday 21 Nov 2014 (Local Time) from KMIW Reporting Station
Overcast Overcast  
Wind Chill: 23°   Ceiling: 1700
Heat Index: 33°   Visibility: 10mi
Dew Point: 22°   Wind: 15mph
Humidity: 64%   Direction: 160°SSE
Pressure: 30.11"   Gusts: NA
Location:  42°N, 92.58°W
Report Text: KMIW 212353Z AUTO 16013KT 10SM OVC017 01/M06 A3011 RMK AO2 SLP211 T00061056 10011 21028 56013
Loading
Personal Weather Stations






























Interactive Weather Map New forecast layout! Learn more

10-Day Weather Forecast

Advertisements
Track Severe Weather on mobile